VABB/BOM METAR and TAF weather

Enter ICAO airport designator
Station Type Date Time Source
VABB METAR 2020/10/20 16:30 UTC NOAA

VABB 201630Z 30003KT 3000 HZ FEW020 FEW025TCU SCT100 30/28 Q1009 NOSIG


Station Type Date Time Source
VABB Decoded METAR 2020/10/20 16:30 UTC NOAA

Bombay / Santacruz, India (VABB) 19-07N 072-51E 14M
Oct 20, 2020 - 12:30 PM EDT / 2020.10.20 1630 UTC
Wind: from the WNW (300 degrees) at 3 MPH (3 KT):0
Visibility: 1 mile(s):0
Sky conditions: partly cloudy
Weather: haze; Towering cumulus clouds observed
Temperature: 86 F (30 C)
Heat index: 104.7 F (40.4 C):1
Dew Point: 82 F (28 C)
Relative Humidity: 89%
Pressure (altimeter): 29.80 in. Hg (1009 hPa)
ob: VABB 201630Z 30003KT 3000 HZ FEW020 FEW025TCU SCT100 30/28 Q1009 NOSIG
cycle: 16

Station Type Date Time Source
VABB TAF 2020/10/20 12:30 UTC NOAA

TAF TAF VABB 201100Z 2012/2118 29010KT 4000 HZ SCT018 SCT025 BKN090
BECMG 2013/2015 35005KT 3000 HZ
TEMPO 2014/2021 1500 -TSRA SHRA FEW010 FEW030CB OVC080
BECMG 2021/2023 07005KT 2500 HZ SCT018 SCT100
BECMG 2104/2106 29010KT 4000 HZ FEW018 SCT025 BKN090
BECMG 2113/2115 02005KT 3000 HZ

Example: see airport list